createdAt,value
2022-10-23T00:00:04.837Z,0.00
2022-10-23T00:01:24.718Z,0.00
2022-10-23T00:02:03.992Z,0.00
2022-10-23T00:03:03.673Z,0.00
2022-10-23T00:04:04.653Z,0.00
2022-10-23T00:05:05.274Z,0.00
2022-10-23T00:06:05.043Z,0.00
2022-10-23T00:07:04.216Z,0.00
2022-10-23T00:08:05.145Z,0.00
2022-10-23T00:09:04.060Z,0.00
2022-10-23T00:10:05.228Z,0.00
2022-10-23T00:11:23.547Z,0.00
2022-10-23T00:12:04.906Z,0.00
2022-10-23T00:13:04.216Z,0.00
2022-10-23T00:14:04.948Z,0.00
2022-10-23T00:15:05.247Z,0.00
2022-10-23T00:16:04.547Z,0.00
2022-10-23T00:17:05.347Z,0.00
2022-10-23T00:18:05.130Z,0.00
2022-10-23T00:19:04.223Z,0.00
2022-10-23T00:20:04.689Z,0.00
2022-10-23T00:21:23.516Z,0.00
2022-10-23T00:22:05.319Z,0.00
2022-10-23T00:23:04.599Z,0.00
2022-10-23T00:24:03.561Z,0.00
2022-10-23T00:25:04.225Z,0.00
2022-10-23T00:26:04.958Z,0.00
2022-10-23T00:27:05.243Z,0.00
2022-10-23T00:28:05.014Z,0.00
2022-10-23T00:29:04.798Z,0.00
2022-10-23T00:30:03.681Z,0.00
2022-10-23T00:31:23.395Z,0.00
2022-10-23T00:32:05.104Z,0.00
2022-10-23T00:33:04.892Z,0.00
2022-10-23T00:34:04.413Z,0.00
2022-10-23T00:35:04.977Z,0.00
2022-10-23T00:36:04.265Z,0.00
2022-10-23T00:37:04.237Z,0.00
2022-10-23T00:38:04.913Z,0.00
2022-10-23T00:39:03.307Z,0.00
2022-10-23T00:40:04.975Z,0.00
2022-10-23T00:41:23.292Z,0.00
2022-10-23T00:42:04.625Z,0.00
2022-10-23T00:43:04.235Z,0.00
2022-10-23T00:44:04.209Z,0.00
2022-10-23T00:45:04.496Z,0.00
2022-10-23T00:46:04.275Z,0.00
2022-10-23T00:47:05.046Z,0.00
2022-10-23T00:48:04.835Z,0.00
2022-10-23T00:49:03.311Z,0.00
2022-10-23T00:50:04.901Z,0.00
2022-10-23T00:51:23.196Z,0.00
2022-10-23T00:52:03.575Z,0.00
2022-10-23T00:53:04.798Z,0.00
2022-10-23T00:55:04.410Z,0.00
2022-10-23T00:56:04.145Z,0.00
2022-10-23T00:57:04.917Z,0.00
2022-10-23T00:58:04.717Z,0.00
2022-10-23T00:59:04.506Z,0.00
2022-10-23T01:00:03.771Z,0.00
2022-10-23T01:01:24.736Z,0.00
2022-10-23T01:02:03.453Z,0.00
2022-10-23T01:03:03.816Z,0.00
2022-10-23T01:04:04.332Z,0.00
2022-10-23T01:05:04.621Z,0.00
2022-10-23T01:06:04.290Z,0.00
2022-10-23T01:07:03.206Z,0.00
2022-10-23T01:08:02.933Z,0.00
2022-10-23T01:09:05.529Z,0.00
2022-10-23T01:10:02.930Z,0.00
2022-10-23T01:11:23.760Z,0.00
2022-10-23T01:12:04.422Z,0.00
2022-10-23T01:13:04.671Z,0.00
2022-10-23T01:15:03.452Z,0.00
2022-10-23T01:16:02.993Z,0.00
2022-10-23T01:17:03.242Z,0.00
2022-10-23T01:18:03.463Z,0.00
2022-10-23T01:19:03.246Z,0.00
2022-10-23T01:20:02.986Z,0.00
2022-10-23T01:21:24.712Z,0.00
2022-10-23T01:22:03.003Z,0.00
2022-10-23T01:23:02.752Z,0.00
2022-10-23T01:24:03.373Z,0.00
2022-10-23T01:25:02.791Z,0.00
2022-10-23T01:26:03.043Z,0.00
2022-10-23T01:27:02.777Z,0.00
2022-10-23T01:28:03.033Z,0.00
2022-10-23T01:29:02.816Z,0.00
2022-10-23T01:30:04.472Z,0.00
2022-10-23T01:31:23.668Z,0.00
2022-10-23T01:32:03.418Z,0.00
2022-10-23T01:33:02.877Z,0.00
2022-10-23T01:34:02.968Z,0.00
2022-10-23T01:35:02.707Z,0.00
2022-10-23T01:36:02.989Z,0.00
2022-10-23T01:37:02.717Z,0.00
2022-10-23T01:38:02.980Z,0.00
2022-10-23T01:40:02.980Z,0.00
2022-10-23T01:41:23.300Z,0.00
2022-10-23T01:42:02.520Z,0.00
2022-10-23T01:43:02.769Z,0.00
2022-10-23T01:44:02.551Z,0.00
2022-10-23T01:45:03.097Z,0.00
2022-10-23T01:46:02.519Z,0.00
2022-10-23T01:47:02.781Z,0.00
2022-10-23T01:48:02.519Z,0.00
2022-10-23T01:49:03.727Z,0.00
2022-10-23T01:50:02.507Z,0.00
2022-10-23T01:51:24.282Z,0.00
2022-10-23T01:52:03.855Z,0.00
2022-10-23T01:53:03.302Z,0.00
2022-10-23T01:54:04.021Z,0.00
2022-10-23T01:55:04.304Z,0.00
2022-10-23T01:56:04.138Z,0.00
2022-10-23T01:57:03.929Z,0.00
2022-10-23T01:58:03.434Z,0.00
2022-10-23T01:59:03.303Z,0.00
2022-10-23T02:00:03.843Z,0.00
2022-10-23T02:01:22.818Z,0.00
2022-10-23T02:02:04.116Z,0.00
2022-10-23T02:03:04.225Z,0.00
2022-10-23T02:04:04.014Z,0.00
2022-10-23T02:05:03.321Z,0.00
2022-10-23T02:06:02.704Z,0.00
2022-10-23T02:07:03.933Z,0.00
2022-10-23T02:08:03.452Z,0.00
2022-10-23T02:09:03.642Z,0.00
2022-10-23T02:10:03.450Z,0.00
2022-10-23T02:11:23.772Z,0.00
2022-10-23T02:12:04.012Z,0.00
2022-10-23T02:13:03.852Z,0.00
2022-10-23T02:14:04.128Z,0.00
2022-10-23T02:15:03.493Z,0.00
2022-10-23T02:16:03.821Z,0.00
2022-10-23T02:17:03.292Z,0.00
2022-10-23T02:18:03.164Z,0.00
2022-10-23T02:19:03.774Z,0.00
2022-10-23T02:20:04.073Z,0.00
2022-10-23T02:21:22.486Z,0.00
2022-10-23T02:22:03.109Z,0.00
2022-10-23T02:23:03.305Z,0.00
2022-10-23T02:24:03.761Z,0.00
2022-10-23T02:25:03.671Z,0.00
2022-10-23T02:26:03.468Z,0.00
2022-10-23T02:27:03.799Z,0.00
2022-10-23T02:28:02.807Z,0.00
2022-10-23T02:29:02.828Z,0.00
2022-10-23T02:30:03.767Z,0.00
2022-10-23T02:31:22.148Z,0.00
2022-10-23T02:32:03.017Z,0.00
2022-10-23T02:33:03.857Z,0.00
2022-10-23T02:34:02.813Z,0.00
2022-10-23T02:35:03.514Z,0.00
2022-10-23T02:36:03.868Z,0.00
2022-10-23T02:37:03.188Z,0.00
2022-10-23T02:38:02.718Z,0.00
2022-10-23T02:39:03.363Z,0.00
2022-10-23T02:40:02.820Z,0.00
2022-10-23T02:41:22.112Z,0.00
2022-10-23T02:42:02.369Z,0.00
2022-10-23T02:43:03.123Z,0.00
2022-10-23T02:44:03.396Z,0.00
2022-10-23T02:45:02.823Z,0.00
2022-10-23T02:46:02.826Z,0.00
2022-10-23T02:47:03.816Z,0.00
2022-10-23T02:48:03.586Z,0.00
2022-10-23T02:49:03.365Z,0.00
2022-10-23T02:50:02.876Z,0.00
2022-10-23T02:51:21.982Z,0.00
2022-10-23T02:52:03.749Z,0.00
2022-10-23T02:53:03.500Z,0.00
2022-10-23T02:54:02.815Z,0.00
2022-10-23T02:55:03.630Z,0.00
2022-10-23T02:56:03.478Z,0.00
2022-10-23T02:57:02.825Z,0.00
2022-10-23T02:58:02.267Z,0.00
2022-10-23T02:59:02.950Z,0.00
2022-10-23T03:00:03.249Z,0.00
2022-10-23T03:01:22.227Z,0.00
2022-10-23T03:02:03.368Z,0.00
2022-10-23T03:03:02.844Z,0.00
2022-10-23T03:04:03.465Z,0.00
2022-10-23T03:05:03.208Z,0.00
2022-10-23T03:06:02.997Z,0.00
2022-10-23T03:07:03.278Z,0.00
2022-10-23T03:08:02.339Z,0.00
2022-10-23T03:09:02.343Z,0.00
2022-10-23T03:10:02.763Z,0.00
2022-10-23T03:11:22.095Z,0.00
2022-10-23T03:12:03.370Z,0.00
2022-10-23T03:13:03.192Z,0.00
2022-10-23T03:14:02.966Z,0.00
2022-10-23T03:15:02.333Z,0.00
2022-10-23T03:16:03.040Z,0.00
2022-10-23T03:17:03.311Z,0.00
2022-10-23T03:18:03.160Z,0.00
2022-10-23T03:19:03.499Z,0.00
2022-10-23T03:20:03.215Z,0.00
2022-10-23T03:21:22.434Z,0.00
2022-10-23T03:22:03.273Z,0.00
2022-10-23T03:23:02.283Z,0.00
2022-10-23T03:24:03.379Z,0.00
2022-10-23T03:25:03.149Z,0.00
2022-10-23T03:26:03.511Z,0.00
2022-10-23T03:27:02.348Z,0.00
2022-10-23T03:28:03.113Z,0.00
2022-10-23T03:29:03.389Z,0.00
2022-10-23T03:30:03.183Z,0.00
2022-10-23T03:31:21.500Z,0.00
2022-10-23T03:32:03.215Z,0.00
2022-10-23T03:33:02.347Z,0.00
2022-10-23T03:34:04.127Z,0.00
2022-10-23T03:35:02.323Z,0.00
2022-10-23T03:36:02.888Z,0.00
2022-10-23T03:37:03.175Z,0.00
2022-10-23T03:38:02.990Z,0.00
2022-10-23T03:39:02.352Z,0.00
2022-10-23T03:40:02.610Z,0.00
2022-10-23T03:41:22.889Z,0.00
2022-10-23T03:42:02.290Z,0.00
2022-10-23T03:43:03.088Z,0.00
2022-10-23T03:45:02.351Z,0.00
2022-10-23T03:46:02.999Z,0.00
2022-10-23T03:47:02.013Z,0.00
2022-10-23T03:48:02.583Z,0.00
2022-10-23T03:49:01.538Z,0.00
2022-10-23T03:50:02.204Z,0.00
2022-10-23T03:51:21.512Z,0.00
2022-10-23T03:52:02.738Z,0.00
2022-10-23T03:53:03.052Z,0.00
2022-10-23T03:54:02.369Z,0.00
2022-10-23T03:55:02.144Z,0.00
2022-10-23T03:56:02.951Z,0.00
2022-10-23T03:57:01.876Z,0.00
2022-10-23T03:58:02.264Z,0.00
2022-10-23T03:59:02.888Z,0.00
2022-10-23T04:00:02.675Z,0.00
2022-10-23T04:01:21.537Z,0.00
2022-10-23T04:02:01.595Z,0.00
2022-10-23T04:03:02.485Z,0.00
2022-10-23T04:04:02.780Z,0.00
2022-10-23T04:05:02.623Z,0.00
2022-10-23T04:06:02.915Z,0.00
2022-10-23T04:07:01.935Z,0.00
2022-10-23T04:08:01.920Z,0.00
2022-10-23T04:09:02.902Z,0.00
2022-10-23T04:10:02.647Z,0.00
2022-10-23T04:11:21.452Z,0.00
2022-10-23T04:12:01.297Z,0.00
2022-10-23T04:13:01.976Z,0.00
2022-10-23T04:14:01.878Z,0.00
2022-10-23T04:15:01.189Z,0.00
2022-10-23T04:16:02.906Z,0.00
2022-10-23T04:17:02.713Z,0.00
2022-10-23T04:18:02.489Z,0.00
2022-10-23T04:19:01.889Z,0.00
2022-10-23T04:20:01.893Z,0.00
2022-10-23T04:21:21.488Z,0.00
2022-10-23T04:22:02.119Z,0.00
2022-10-23T04:23:02.372Z,0.00
2022-10-23T04:24:02.713Z,0.00
2022-10-23T04:25:02.490Z,0.00
2022-10-23T04:26:02.266Z,0.00
2022-10-23T04:27:02.617Z,0.00
2022-10-23T04:28:02.387Z,0.00
2022-10-23T04:29:02.179Z,0.00
2022-10-23T04:30:02.444Z,0.00
2022-10-23T04:31:21.297Z,0.00
2022-10-23T04:32:01.981Z,0.00
2022-10-23T04:33:02.290Z,0.00
2022-10-23T04:34:01.848Z,0.00
2022-10-23T04:35:01.887Z,0.00
2022-10-23T04:36:02.712Z,0.00
2022-10-23T04:37:01.900Z,0.00
2022-10-23T04:38:00.868Z,0.00
2022-10-23T04:39:02.053Z,0.00
2022-10-23T04:40:02.380Z,0.00
2022-10-23T04:41:21.204Z,0.00
2022-10-23T04:42:01.391Z,0.00
2022-10-23T04:43:01.397Z,0.00
2022-10-23T04:44:02.568Z,0.00
2022-10-23T04:45:01.830Z,0.00
2022-10-23T04:46:02.137Z,0.00
2022-10-23T04:47:01.664Z,0.00
2022-10-23T04:48:02.246Z,0.00
2022-10-23T04:49:01.114Z,0.00
2022-10-23T04:50:02.344Z,0.00
2022-10-23T04:51:20.668Z,0.00
2022-10-23T04:52:01.069Z,0.00
2022-10-23T04:53:02.374Z,0.00
2022-10-23T04:54:02.137Z,0.00
2022-10-23T04:55:01.429Z,0.00
2022-10-23T04:56:01.808Z,0.00
2022-10-23T04:57:02.096Z,0.00
2022-10-23T04:58:02.427Z,0.00
2022-10-23T04:59:00.853Z,0.00
2022-10-23T05:00:01.987Z,0.00
2022-10-23T05:01:20.923Z,0.00
2022-10-23T05:02:01.246Z,0.00
2022-10-23T05:03:02.369Z,0.00
2022-10-23T05:04:00.729Z,0.00
2022-10-23T05:05:00.499Z,0.00
2022-10-23T05:06:02.219Z,0.00
2022-10-23T05:07:01.412Z,0.00
2022-10-23T05:08:02.359Z,0.00
2022-10-23T05:09:02.135Z,0.00
2022-10-23T05:10:01.922Z,0.00
2022-10-23T05:11:20.751Z,0.00
2022-10-23T05:12:00.839Z,0.00
2022-10-23T05:13:02.155Z,0.00
2022-10-23T05:14:01.998Z,0.00
2022-10-23T05:15:01.800Z,0.00
2022-10-23T05:16:00.650Z,0.00
2022-10-23T05:17:01.096Z,0.00
2022-10-23T05:18:01.432Z,0.00
2022-10-23T05:19:02.085Z,0.00
2022-10-23T05:20:01.861Z,0.00
2022-10-23T05:21:20.690Z,0.00
2022-10-23T05:22:01.881Z,0.00
2022-10-23T05:23:01.733Z,0.00
2022-10-23T05:24:01.421Z,0.00
2022-10-23T05:25:01.859Z,0.00
2022-10-23T05:26:00.843Z,0.00
2022-10-23T05:27:01.503Z,0.00
2022-10-23T05:28:01.798Z,0.00
2022-10-23T05:29:02.100Z,0.00
2022-10-23T05:30:00.944Z,0.00
2022-10-23T05:31:20.723Z,0.00
2022-10-23T05:32:00.530Z,0.00
2022-10-23T05:33:01.744Z,0.00
2022-10-23T05:34:01.618Z,0.00
2022-10-23T05:35:00.482Z,0.00
2022-10-23T05:36:01.225Z,0.00
2022-10-23T05:37:01.996Z,0.00
2022-10-23T05:38:01.776Z,0.00
2022-10-23T05:39:02.128Z,0.00
2022-10-23T05:40:01.943Z,0.00
2022-10-23T05:41:20.239Z,0.00
2022-10-23T05:42:02.052Z,0.00
2022-10-23T05:43:01.065Z,0.00
2022-10-23T05:44:01.629Z,0.00
2022-10-23T05:45:01.928Z,0.00
2022-10-23T05:46:01.786Z,0.00
2022-10-23T05:47:00.946Z,0.00
2022-10-23T05:48:10.941Z,0.00
2022-10-23T05:49:02.677Z,0.00
2022-10-23T05:50:01.959Z,0.00
2022-10-23T05:51:20.271Z,0.00
2022-10-23T05:52:00.723Z,0.00
2022-10-23T05:53:00.366Z,0.00
2022-10-23T05:54:01.616Z,0.00
2022-10-23T05:55:01.431Z,0.00
2022-10-23T05:56:01.717Z,0.00
2022-10-23T05:57:01.506Z,0.00
2022-10-23T05:58:01.885Z,0.00
2022-10-23T05:59:00.972Z,0.00
2022-10-23T06:00:00.930Z,0.00
2022-10-23T06:01:20.322Z,0.00
2022-10-23T06:02:01.084Z,0.00
2022-10-23T06:03:01.814Z,0.00
2022-10-23T06:04:00.955Z,0.00
2022-10-23T06:05:01.413Z,0.00
2022-10-23T06:06:01.719Z,0.00
2022-10-23T06:07:01.503Z,0.00
2022-10-23T06:08:01.771Z,0.00
2022-10-23T06:09:01.105Z,0.00
2022-10-23T06:10:00.464Z,0.00
2022-10-23T06:11:20.235Z,0.00
2022-10-23T06:12:00.261Z,0.00
2022-10-23T06:13:01.035Z,0.00
2022-10-23T06:14:01.433Z,0.00
2022-10-23T06:15:01.618Z,0.00
2022-10-23T06:16:01.433Z,0.00
2022-10-23T06:17:00.456Z,0.00
2022-10-23T06:18:01.524Z,0.00
2022-10-23T06:19:01.317Z,0.00
2022-10-23T06:20:00.825Z,0.00
2022-10-23T06:21:20.033Z,0.00
2022-10-23T06:22:00.680Z,0.00
2022-10-23T06:23:00.464Z,0.00
2022-10-23T06:24:01.322Z,0.00
2022-10-23T06:25:01.601Z,0.00
2022-10-23T06:26:01.497Z,0.00
2022-10-23T06:27:01.271Z,0.00
2022-10-23T06:28:01.064Z,0.00
2022-10-23T06:29:00.478Z,0.00
2022-10-23T06:30:01.167Z,0.00
2022-10-23T06:31:19.982Z,0.00
2022-10-23T06:31:59.117Z,0.00
2022-10-23T06:33:03.385Z,5.62
2022-10-23T06:34:01.157Z,5.62
2022-10-23T06:35:00.461Z,5.62
2022-10-23T06:36:01.312Z,5.62
2022-10-23T06:37:01.072Z,5.62
2022-10-23T06:38:00.853Z,5.62
2022-10-23T06:39:01.157Z,5.62
2022-10-23T06:40:01.478Z,5.62
2022-10-23T06:41:19.813Z,5.62
2022-10-23T06:42:00.234Z,5.62
2022-10-23T06:43:00.794Z,5.62
2022-10-23T06:44:01.083Z,5.62
2022-10-23T06:45:04.820Z,5.62
2022-10-23T06:46:02.204Z,5.62
2022-10-23T06:47:01.002Z,5.62
2022-10-23T06:48:01.274Z,11.25
2022-10-23T06:49:01.075Z,11.25
2022-10-23T06:50:00.922Z,11.25
2022-10-23T06:51:21.331Z,11.25
2022-10-23T06:51:59.556Z,11.25
2022-10-23T06:52:59.782Z,11.25
2022-10-23T06:53:59.531Z,11.25
2022-10-23T06:54:59.765Z,11.25
2022-10-23T06:55:59.506Z,11.25
2022-10-23T06:56:59.756Z,11.25
2022-10-23T06:57:59.507Z,11.25
2022-10-23T06:59:00.042Z,11.25
2022-10-23T07:00:00.959Z,16.88
2022-10-23T07:01:21.466Z,16.88
2022-10-23T07:01:59.555Z,16.88
2022-10-23T07:02:59.300Z,16.88
2022-10-23T07:03:59.542Z,16.88
2022-10-23T07:04:59.292Z,16.88
2022-10-23T07:05:59.537Z,22.50
2022-10-23T07:06:59.286Z,22.50
2022-10-23T07:07:59.518Z,22.50
2022-10-23T07:08:59.259Z,22.50
2022-10-23T07:09:59.572Z,22.50
2022-10-23T07:11:20.789Z,22.50
2022-10-23T07:11:59.572Z,22.50
2022-10-23T07:12:59.315Z,28.12
2022-10-23T07:13:59.572Z,28.12
2022-10-23T07:14:59.311Z,28.12
2022-10-23T07:15:59.575Z,33.75
2022-10-23T07:16:59.313Z,33.75
2022-10-23T07:17:59.575Z,39.38
2022-10-23T07:18:59.307Z,39.38
2022-10-23T07:19:59.702Z,39.38
2022-10-23T07:21:20.031Z,39.38
2022-10-23T07:22:00.626Z,39.38
2022-10-23T07:23:00.879Z,39.38
2022-10-23T07:24:00.637Z,39.38
2022-10-23T07:25:00.885Z,39.38
2022-10-23T07:26:00.656Z,39.38
2022-10-23T07:26:59.472Z,33.75
2022-10-23T07:28:00.677Z,33.75
2022-10-23T07:28:59.523Z,33.75
2022-10-23T07:30:00.693Z,33.75
2022-10-23T07:31:19.026Z,33.75
2022-10-23T07:31:59.318Z,33.75
2022-10-23T07:32:59.018Z,33.75
2022-10-23T07:33:59.252Z,33.75
2022-10-23T07:34:59.007Z,33.75
2022-10-23T07:36:00.177Z,33.75
2022-10-23T07:36:59.039Z,33.75
2022-10-23T07:38:00.023Z,33.75
2022-10-23T07:38:59.055Z,33.75
2022-10-23T07:40:00.739Z,33.75
2022-10-23T07:41:19.027Z,33.75
2022-10-23T07:41:59.288Z,33.75
2022-10-23T07:42:59.047Z,39.38
2022-10-23T07:43:59.332Z,39.38
2022-10-23T07:45:00.480Z,39.38
2022-10-23T07:45:59.292Z,39.38
2022-10-23T07:47:00.510Z,45.00
2022-10-23T07:47:58.801Z,45.00
2022-10-23T07:49:00.522Z,45.00
2022-10-23T07:49:58.817Z,45.00
2022-10-23T07:51:20.528Z,50.62
2022-10-23T07:51:58.989Z,50.62
2022-10-23T07:52:59.133Z,50.62
2022-10-23T07:53:58.914Z,50.62
2022-10-23T07:55:00.593Z,50.62
2022-10-23T07:55:58.941Z,50.62
2022-10-23T07:56:59.222Z,56.25
2022-10-23T07:57:58.921Z,56.25
2022-10-23T07:58:59.199Z,56.25
2022-10-23T08:00:00.382Z,56.25
2022-10-23T08:01:19.247Z,50.62
2022-10-23T08:01:59.047Z,50.62
2022-10-23T08:02:59.255Z,50.62
2022-10-23T08:03:58.923Z,50.62
2022-10-23T08:04:58.666Z,50.62
2022-10-23T08:05:58.904Z,50.62
2022-10-23T08:06:58.635Z,56.25
2022-10-23T08:07:58.975Z,56.25
2022-10-23T08:09:03.723Z,56.25
2022-10-23T08:09:59.973Z,56.25
2022-10-23T08:11:20.175Z,56.25
2022-10-23T08:12:00.441Z,56.25
2022-10-23T08:12:58.770Z,56.25
2022-10-23T08:13:58.993Z,56.25
2022-10-23T08:15:00.217Z,56.25
2022-10-23T08:15:59.017Z,56.25
2022-10-23T08:16:58.790Z,56.25
2022-10-23T08:17:58.495Z,56.25
2022-10-23T08:18:59.695Z,56.25
2022-10-23T08:19:58.489Z,56.25
2022-10-23T08:21:19.558Z,56.25
2022-10-23T08:21:58.505Z,56.25
2022-10-23T08:22:58.778Z,61.88
2022-10-23T08:23:58.517Z,61.88
2022-10-23T08:24:58.782Z,67.50
2022-10-23T08:25:58.538Z,67.50
2022-10-23T08:26:59.549Z,73.12
2022-10-23T08:27:58.512Z,78.75
2022-10-23T08:28:58.784Z,78.75
2022-10-23T08:29:58.521Z,84.38
2022-10-23T08:31:20.230Z,78.75
2022-10-23T08:31:58.517Z,78.75
2022-10-23T08:32:59.065Z,73.12
2022-10-23T08:33:59.971Z,73.12
2022-10-23T08:34:58.812Z,78.75
2022-10-23T08:35:58.533Z,73.12
2022-10-23T08:36:58.768Z,73.12
2022-10-23T08:37:58.511Z,67.50
2022-10-23T08:38:59.724Z,61.88
2022-10-23T08:39:58.544Z,50.62
2022-10-23T08:41:19.775Z,50.62
2022-10-23T08:41:58.615Z,50.62
2022-10-23T08:42:58.307Z,50.62
2022-10-23T08:43:58.564Z,50.62
2022-10-23T08:44:58.292Z,50.62
2022-10-23T08:45:58.544Z,50.62
2022-10-23T08:46:58.281Z,50.62
2022-10-23T08:47:58.553Z,50.62
2022-10-23T08:48:58.287Z,50.62
2022-10-23T08:49:58.630Z,50.62
2022-10-23T08:51:19.096Z,50.62
2022-10-23T08:51:58.590Z,50.62
2022-10-23T08:52:58.351Z,50.62
2022-10-23T08:54:00.077Z,50.62
2022-10-23T08:54:58.412Z,56.25
2022-10-23T08:55:58.130Z,56.25
2022-10-23T08:56:58.381Z,56.25
2022-10-23T08:57:58.133Z,56.25
2022-10-23T08:58:58.379Z,61.88
2022-10-23T08:59:58.115Z,61.88
2022-10-23T09:01:19.530Z,61.88
2022-10-23T09:01:58.281Z,61.88
2022-10-23T09:02:58.379Z,61.88
2022-10-23T09:03:58.135Z,67.50
2022-10-23T09:04:58.410Z,67.50
2022-10-23T09:05:58.163Z,73.12
2022-10-23T09:06:58.439Z,73.12
2022-10-23T09:07:58.183Z,78.75
2022-10-23T09:08:58.420Z,78.75
2022-10-23T09:09:58.177Z,78.75
2022-10-23T09:11:18.429Z,78.75
2022-10-23T09:11:58.152Z,78.75
2022-10-23T09:12:58.394Z,73.12
2022-10-23T09:13:58.177Z,73.12
2022-10-23T09:14:57.938Z,67.50
2022-10-23T09:15:58.172Z,67.50
2022-10-23T09:16:57.915Z,67.50
2022-10-23T09:17:58.189Z,67.50
2022-10-23T09:18:57.930Z,67.50
2022-10-23T09:19:58.200Z,61.88
2022-10-23T09:21:17.991Z,61.88
2022-10-23T09:21:58.176Z,61.88
2022-10-23T09:22:57.921Z,61.88
2022-10-23T09:23:58.166Z,67.50
2022-10-23T09:24:57.912Z,67.50
2022-10-23T09:25:58.154Z,67.50
2022-10-23T09:26:57.978Z,67.50
2022-10-23T09:28:00.159Z,67.50
2022-10-23T09:28:58.923Z,73.12
2022-10-23T09:29:58.187Z,73.12
2022-10-23T09:31:17.964Z,73.12
2022-10-23T09:31:58.173Z,73.12
2022-10-23T09:32:57.908Z,73.12
2022-10-23T09:33:58.188Z,73.12
2022-10-23T09:34:57.939Z,73.12
2022-10-23T09:35:57.706Z,73.12
2022-10-23T09:36:58.608Z,73.12
2022-10-23T09:37:58.712Z,73.12
2022-10-23T09:38:58.025Z,67.50
2022-10-23T09:39:57.764Z,61.88
2022-10-23T09:41:18.163Z,61.88
2022-10-23T09:41:58.883Z,56.25
2022-10-23T09:42:58.598Z,61.88
2022-10-23T09:43:59.543Z,61.88
2022-10-23T09:44:59.332Z,61.88
2022-10-23T09:45:58.332Z,67.50
2022-10-23T09:46:58.902Z,67.50
2022-10-23T09:47:58.621Z,67.50
2022-10-23T09:49:00.970Z,67.50
2022-10-23T09:49:58.822Z,61.88
2022-10-23T09:51:17.640Z,61.88
2022-10-23T09:51:59.386Z,61.88
2022-10-23T09:52:57.680Z,67.50
2022-10-23T09:53:57.937Z,73.12
2022-10-23T09:54:57.693Z,73.12
2022-10-23T09:55:57.947Z,73.12
2022-10-23T09:56:57.690Z,73.12
2022-10-23T09:57:57.934Z,73.12
2022-10-23T09:59:07.393Z,73.12
2022-10-23T09:59:57.692Z,67.50
2022-10-23T10:01:18.003Z,67.50
2022-10-23T10:01:57.817Z,67.50
2022-10-23T10:02:57.414Z,67.50
2022-10-23T10:03:57.650Z,67.50
2022-10-23T10:04:57.905Z,61.88
2022-10-23T10:05:57.645Z,56.25
2022-10-23T10:06:57.395Z,56.25
2022-10-23T10:07:57.639Z,50.62
2022-10-23T10:08:57.381Z,56.25
2022-10-23T10:09:57.620Z,56.25
2022-10-23T10:11:19.919Z,56.25
2022-10-23T10:11:57.602Z,61.88
2022-10-23T10:12:59.291Z,61.88
2022-10-23T10:13:57.580Z,56.25
2022-10-23T10:14:57.326Z,56.25
2022-10-23T10:15:57.586Z,50.62
2022-10-23T10:16:57.313Z,50.62
2022-10-23T10:17:57.573Z,56.25
2022-10-23T10:18:57.308Z,56.25
2022-10-23T10:19:57.543Z,61.88
2022-10-23T10:21:17.303Z,73.12
2022-10-23T10:21:57.534Z,84.38
2022-10-23T10:22:57.273Z,106.88
2022-10-23T10:23:57.511Z,118.12
2022-10-23T10:24:57.255Z,151.88
2022-10-23T10:25:57.491Z,163.12
2022-10-23T10:26:57.252Z,208.12
2022-10-23T10:27:57.495Z,196.88
2022-10-23T10:28:57.218Z,185.62
2022-10-23T10:29:57.465Z,185.62
2022-10-23T10:31:17.237Z,191.25
2022-10-23T10:31:57.464Z,208.12
2022-10-23T10:32:57.206Z,286.88
2022-10-23T10:33:57.466Z,191.25
2022-10-23T10:34:57.206Z,180.00
2022-10-23T10:35:57.457Z,180.00
2022-10-23T10:36:57.210Z,163.12
2022-10-23T10:37:57.435Z,140.62
2022-10-23T10:38:57.187Z,123.75
2022-10-23T10:39:57.432Z,123.75
2022-10-23T10:41:17.186Z,123.75
2022-10-23T10:41:57.417Z,123.75
2022-10-23T10:42:57.148Z,123.75
2022-10-23T10:43:57.413Z,146.25
2022-10-23T10:44:57.131Z,151.88
2022-10-23T10:45:57.374Z,140.62
2022-10-23T10:46:57.124Z,123.75
2022-10-23T10:47:57.368Z,219.38
2022-10-23T10:48:57.122Z,174.38
2022-10-23T10:49:57.358Z,168.75
2022-10-23T10:51:17.141Z,185.62
2022-10-23T10:51:57.344Z,174.38
2022-10-23T10:52:57.093Z,146.25
2022-10-23T10:53:57.329Z,118.12
2022-10-23T10:54:57.063Z,101.25
2022-10-23T10:55:57.334Z,101.25
2022-10-23T10:56:57.042Z,95.62
2022-10-23T10:57:59.289Z,101.25
2022-10-23T10:58:57.062Z,90.00
2022-10-23T10:59:57.313Z,78.75
2022-10-23T11:01:17.205Z,67.50
2022-10-23T11:01:57.917Z,67.50
2022-10-23T11:02:57.042Z,56.25
2022-10-23T11:03:56.782Z,56.25
2022-10-23T11:04:57.020Z,67.50
2022-10-23T11:05:56.830Z,78.75
2022-10-23T11:06:57.017Z,106.88
2022-10-23T11:07:56.775Z,135.00
2022-10-23T11:09:04.025Z,202.50
2022-10-23T11:09:58.255Z,320.62
2022-10-23T11:11:17.016Z,331.88
2022-10-23T11:11:56.734Z,292.50
2022-10-23T11:12:56.994Z,286.88
2022-10-23T11:13:56.740Z,258.75
2022-10-23T11:14:56.969Z,241.88
2022-10-23T11:15:56.718Z,230.62
2022-10-23T11:16:56.961Z,225.00
2022-10-23T11:17:56.709Z,213.75
2022-10-23T11:18:56.968Z,202.50
2022-10-23T11:19:56.723Z,191.25
2022-10-23T11:21:16.986Z,191.25
2022-10-23T11:21:56.712Z,191.25
2022-10-23T11:22:56.942Z,208.12
2022-10-23T11:23:56.756Z,230.62
2022-10-23T11:24:58.200Z,241.88
2022-10-23T11:25:56.675Z,236.25
2022-10-23T11:26:56.922Z,241.88
2022-10-23T11:28:01.691Z,253.12
2022-10-23T11:28:57.912Z,270.00
2022-10-23T11:29:56.661Z,286.88
2022-10-23T11:31:16.915Z,286.88
2022-10-23T11:31:56.645Z,281.25
2022-10-23T11:32:56.896Z,270.00
2022-10-23T11:33:56.651Z,258.75
2022-10-23T11:34:56.888Z,264.38
2022-10-23T11:35:56.629Z,281.25
2022-10-23T11:36:56.865Z,286.88
2022-10-23T11:37:56.613Z,320.62
2022-10-23T11:38:56.848Z,382.50
2022-10-23T11:39:56.588Z,393.75
2022-10-23T11:41:18.969Z,371.25
2022-10-23T11:41:56.577Z,315.00
2022-10-23T11:42:56.836Z,303.75
2022-10-23T11:43:56.573Z,298.12
2022-10-23T11:44:56.825Z,281.25
2022-10-23T11:45:56.549Z,264.38
2022-10-23T11:46:56.784Z,230.62
2022-10-23T11:47:56.538Z,208.12
2022-10-23T11:48:56.777Z,202.50
2022-10-23T11:49:56.541Z,196.88
2022-10-23T11:51:16.794Z,191.25
2022-10-23T11:51:56.511Z,185.62
2022-10-23T11:53:13.038Z,185.62
2022-10-23T11:53:57.504Z,185.62
2022-10-23T11:54:56.732Z,180.00
2022-10-23T11:55:56.497Z,180.00
2022-10-23T11:56:56.730Z,174.38
2022-10-23T11:57:56.480Z,168.75
2022-10-23T11:58:57.005Z,163.12
2022-10-23T11:59:56.527Z,157.50
2022-10-23T12:01:16.362Z,151.88
2022-10-23T12:01:56.536Z,151.88
2022-10-23T12:02:59.202Z,151.88
2022-10-23T12:03:56.504Z,157.50
2022-10-23T12:04:56.808Z,163.12
2022-10-23T12:05:56.579Z,174.38
2022-10-23T12:06:56.253Z,180.00
2022-10-23T12:07:57.022Z,185.62
2022-10-23T12:08:56.267Z,185.62
2022-10-23T12:09:56.508Z,185.62
2022-10-23T12:11:16.258Z,180.00
2022-10-23T12:11:56.479Z,185.62
2022-10-23T12:12:56.233Z,180.00
2022-10-23T12:13:57.227Z,174.38
2022-10-23T12:14:56.228Z,168.75
2022-10-23T12:15:59.955Z,163.12
2022-10-23T12:16:56.214Z,163.12
2022-10-23T12:17:56.479Z,157.50
2022-10-23T12:18:56.209Z,157.50
2022-10-23T12:19:56.460Z,157.50
2022-10-23T12:21:16.225Z,140.62
2022-10-23T12:21:56.465Z,135.00
2022-10-23T12:22:56.199Z,129.38
2022-10-23T12:23:56.440Z,129.38
2022-10-23T12:24:56.210Z,123.75
2022-10-23T12:25:55.932Z,123.75
2022-10-23T12:26:56.190Z,118.12
2022-10-23T12:27:55.928Z,118.12
2022-10-23T12:28:56.160Z,118.12
2022-10-23T12:29:55.912Z,118.12
2022-10-23T12:31:17.661Z,118.12
2022-10-23T12:31:55.943Z,118.12
2022-10-23T12:32:56.214Z,123.75
2022-10-23T12:33:55.945Z,123.75
2022-10-23T12:34:56.193Z,129.38
2022-10-23T12:35:55.942Z,129.38
2022-10-23T12:36:56.177Z,135.00
2022-10-23T12:37:55.943Z,135.00
2022-10-23T12:38:56.172Z,135.00
2022-10-23T12:39:55.904Z,135.00
2022-10-23T12:41:17.203Z,135.00
2022-10-23T12:41:55.982Z,135.00
2022-10-23T12:42:56.227Z,140.62
2022-10-23T12:43:55.986Z,135.00
2022-10-23T12:44:56.215Z,135.00
2022-10-23T12:45:55.965Z,135.00
2022-10-23T12:46:56.208Z,140.62
2022-10-23T12:47:55.953Z,140.62
2022-10-23T12:48:55.703Z,140.62
2022-10-23T12:49:55.958Z,140.62
2022-10-23T12:51:17.187Z,135.00
2022-10-23T12:51:55.969Z,129.38
2022-10-23T12:52:55.719Z,129.38
2022-10-23T12:53:55.965Z,123.75
2022-10-23T12:54:55.713Z,123.75
2022-10-23T12:55:56.024Z,123.75
2022-10-23T12:56:55.701Z,123.75
2022-10-23T12:57:55.959Z,118.12
2022-10-23T12:58:55.699Z,118.12
2022-10-23T12:59:55.952Z,118.12
2022-10-23T13:01:16.772Z,118.12
2022-10-23T13:01:56.085Z,118.12
2022-10-23T13:02:55.740Z,118.12
2022-10-23T13:03:55.985Z,118.12